Time;durP1;ratioP1;P1;durP2;ratioP2;P2;SDS_P1;SDS_P2;PMS_P1;PMS_P2;Temp;Humidity;BMP_temperature;BMP_pressure;BME280_temperature;BME280_humidity;BME280_pressure;Samples;Min_cycle;Max_cycle;Signal;HPM_P1;HPM_P2
2022/07/18 00:01:31;;;;;;;2.75;1.60;;;17.00;72.00;;;;;;6153419;23;20173;-73
2022/07/18 00:03:57;;;;;;;2.28;1.90;;;17.00;72.60;;;;;;6154698;23;20159;-74
2022/07/18 00:06:22;;;;;;;1.60;1.50;;;16.90;73.00;;;;;;6156192;23;20228;-74
2022/07/18 00:08:48;;;;;;;1.95;1.67;;;16.80;73.00;;;;;;6129364;23;20172;-73
2022/07/18 00:11:14;;;;;;;1.95;1.58;;;16.70;73.60;;;;;;6129501;23;20185;-73
2022/07/18 00:13:39;;;;;;;1.58;1.48;;;16.70;73.90;;;;;;6155921;23;20160;-73
2022/07/18 00:16:05;;;;;;;2.42;1.77;;;16.60;74.50;;;;;;6156183;23;20173;-70
2022/07/18 00:18:31;;;;;;;4.85;1.70;;;16.60;74.80;;;;;;6155392;23;20157;-70
2022/07/18 00:20:57;;;;;;;2.80;1.60;;;16.60;75.30;;;;;;6156110;23;20634;-74
2022/07/18 00:23:22;;;;;;;1.88;1.70;;;16.60;75.50;;;;;;6155845;23;20149;-73
2022/07/18 00:25:48;;;;;;;2.17;1.52;;;16.50;75.70;;;;;;6155923;23;20153;-73
2022/07/18 00:28:14;;;;;;;1.73;1.63;;;16.50;76.60;;;;;;6156061;23;20596;-71
2022/07/18 00:30:41;;;;;;;2.08;1.60;;;16.40;77.60;;;;;;6155724;23;20505;-73
2022/07/18 00:33:07;;;;;;;1.55;1.45;;;16.30;78.00;;;;;;6155927;23;20173;-73
2022/07/18 00:35:33;;;;;;;1.60;1.42;;;16.30;78.50;;;;;;6155715;23;20184;-71
2022/07/18 00:38:01;;;;;;;1.67;1.58;;;16.20;78.80;;;;;;6155812;23;20149;-70
2022/07/18 00:40:26;;;;;;;1.35;1.25;;;16.20;79.10;;;;;;6155434;23;20595;-71
2022/07/18 00:42:52;;;;;;;2.28;1.60;;;16.10;77.70;;;;;;6155644;23;20156;-73
2022/07/18 00:45:18;;;;;;;1.55;1.45;;;16.10;77.40;;;;;;6155672;23;20154;-72
2022/07/18 00:47:44;;;;;;;2.28;1.60;;;16.10;77.60;;;;;;6155718;23;20176;-71
2022/07/18 00:50:10;;;;;;;1.75;1.65;;;16.00;77.40;;;;;;6155847;23;20154;-70
2022/07/18 00:52:36;;;;;;;3.10;1.67;;;16.00;77.80;;;;;;6155622;23;20524;-70
2022/07/18 00:55:05;;;;;;;2.15;1.55;;;15.90;78.00;;;;;;6155755;23;20152;-71
2022/07/18 00:57:31;;;;;;;2.20;1.58;;;15.90;78.50;;;;;;6155343;23;20493;-72
2022/07/18 01:02:42;;;;;;;2.60;1.63;;;15.90;79.60;;;;;;6155397;23;20525;-72
2022/07/18 01:05:09;;;;;;;2.45;1.48;;;15.80;80.10;;;;;;6155915;23;20154;-72
2022/07/18 01:07:36;;;;;;;4.10;1.80;;;15.70;80.80;;;;;;6155548;23;20153;-73
2022/07/18 01:10:03;;;;;;;1.35;1.35;;;15.70;81.80;;;;;;6154759;23;20189;-73
2022/07/18 01:12:29;;;;;;;2.25;1.80;;;15.70;82.80;;;;;;6128583;23;20189;-73
2022/07/18 01:14:56;;;;;;;1.40;1.30;;;15.60;85.00;;;;;;6155228;23;20156;-73
2022/07/18 01:17:22;;;;;;;1.60;1.50;;;15.50;85.50;;;;;;6155265;23;20177;-73
2022/07/18 01:19:48;;;;;;;1.83;1.73;;;15.50;85.80;;;;;;6155345;23;20146;-74
2022/07/18 01:22:16;;;;;;;1.83;1.65;;;15.50;86.60;;;;;;6154980;23;20526;-74
2022/07/18 01:24:42;;;;;;;2.85;1.92;;;15.50;87.20;;;;;;6155417;23;20595;-73
2022/07/18 01:27:08;;;;;;;3.13;1.50;;;15.50;87.60;;;;;;6155533;23;20156;-72
2022/07/18 01:29:34;;;;;;;1.42;1.42;;;15.50;88.20;;;;;;6155084;23;20149;-73
2022/07/18 01:32:07;;;;;;;1.20;1.20;;;15.40;88.70;;;;;;6154941;23;20503;-73
2022/07/18 01:34:33;;;;;;;1.95;1.85;;;15.40;90.00;;;;;;6155583;23;20499;-71
2022/07/18 01:37:00;;;;;;;2.40;1.45;;;15.30;90.40;;;;;;6155260;23;20152;-71
2022/07/18 01:39:25;;;;;;;3.75;1.50;;;15.30;90.40;;;;;;6154749;23;20153;-70
2022/07/18 01:42:05;;;;;;;1.90;1.60;;;15.30;90.80;;;;;;6155528;23;20559;-72
2022/07/18 01:44:33;;;;;;;1.83;1.65;;;15.30;90.70;;;;;;6155625;23;20147;-72
2022/07/18 01:46:58;;;;;;;2.85;2.00;;;15.30;90.70;;;;;;6155478;23;20695;-72
2022/07/18 01:49:25;;;;;;;2.25;1.60;;;15.30;91.00;;;;;;6154843;23;20203;-72
2022/07/18 01:51:52;;;;;;;2.90;1.80;;;15.20;91.20;;;;;;6155126;23;20579;-72
2022/07/18 01:54:26;;;;;;;1.92;1.70;;;15.20;91.50;;;;;;6155157;23;20544;-73
2022/07/18 01:56:52;;;;;;;2.13;1.83;;;15.20;91.70;;;;;;6154739;23;20130;-72
2022/07/18 01:59:19;;;;;;;1.65;1.55;;;15.20;91.70;;;;;;6154802;23;20216;-72
2022/07/18 02:01:45;;;;;;;2.25;1.70;;;15.20;91.80;;;;;;6155250;23;20173;-72
2022/07/18 02:04:10;;;;;;;2.47;2.28;;;15.10;92.00;;;;;;6155167;23;20154;-72
2022/07/18 02:06:36;;;;;;;4.80;2.30;;;15.10;91.70;;;;;;6154794;23;20172;-72
2022/07/18 02:09:03;;;;;;;1.95;1.80;;;15.10;91.40;;;;;;6155318;23;20149;-72
2022/07/18 02:11:29;;;;;;;3.65;2.22;;;15.10;91.00;;;;;;6155565;23;20586;-71
2022/07/18 02:13:54;;;;;;;1.85;1.75;;;15.10;90.90;;;;;;6155175;23;20184;-72
2022/07/18 02:16:20;;;;;;;1.85;1.75;;;15.00;91.70;;;;;;6155106;23;20154;-72
2022/07/18 02:18:45;;;;;;;1.83;1.70;;;15.00;92.00;;;;;;6154921;23;20237;-72
2022/07/18 02:21:13;;;;;;;1.90;1.80;;;14.90;92.10;;;;;;6155116;23;20654;-72
2022/07/18 02:23:40;;;;;;;2.05;1.55;;;14.90;92.30;;;;;;6154803;23;20150;-71
2022/07/18 02:26:06;;;;;;;1.92;1.70;;;14.90;92.30;;;;;;6155256;23;20157;-71
2022/07/18 02:28:31;;;;;;;1.70;1.60;;;14.90;92.20;;;;;;6155905;23;20233;-72
2022/07/18 02:30:57;;;;;;;1.98;1.88;;;14.70;92.60;;;;;;6155972;23;20169;-72
2022/07/18 02:33:22;;;;;;;2.00;1.55;;;14.60;92.80;;;;;;6154802;23;20232;-71
2022/07/18 02:35:48;;;;;;;1.75;1.65;;;14.50;93.20;;;;;;6155245;23;20188;-71
2022/07/18 02:38:14;;;;;;;2.90;1.67;;;14.50;93.30;;;;;;6154669;23;20153;-71
2022/07/18 02:40:39;;;;;;;1.92;1.60;;;14.50;93.40;;;;;;6154294;23;20149;-72
2022/07/18 02:43:05;;;;;;;1.85;1.75;;;14.60;93.80;;;;;;6154882;23;20208;-71
2022/07/18 02:45:31;;;;;;;1.75;1.65;;;14.60;94.10;;;;;;6155357;23;20494;-71
2022/07/18 02:47:56;;;;;;;1.63;1.40;;;14.60;94.20;;;;;;6155174;23;20149;-71
2022/07/18 02:50:22;;;;;;;1.77;1.67;;;14.60;94.50;;;;;;6154568;23;20160;-71
2022/07/18 02:52:50;;;;;;;1.70;1.60;;;14.60;94.30;;;;;;6154941;23;20177;-71
2022/07/18 02:55:15;;;;;;;3.75;1.95;;;14.60;94.30;;;;;;6155362;23;20488;-71
2022/07/18 02:57:41;;;;;;;2.15;1.67;;;14.60;94.40;;;;;;6154908;23;20161;-71
2022/07/18 03:00:10;;;;;;;1.67;1.58;;;14.50;94.80;;;;;;6154255;23;20145;-72
2022/07/18 03:02:36;;;;;;;1.92;1.80;;;14.40;94.80;;;;;;6152245;23;20173;-72
2022/07/18 03:05:03;;;;;;;2.55;1.80;;;14.50;94.80;;;;;;6154850;23;20153;-72
2022/07/18 03:07:28;;;;;;;2.00;1.90;;;14.30;94.90;;;;;;6154900;23;20157;-72
2022/07/18 03:09:54;;;;;;;3.42;2.20;;;14.40;94.90;;;;;;6128210;23;20153;-72
2022/07/18 03:12:20;;;;;;;1.90;1.80;;;14.30;94.90;;;;;;6154474;23;20322;-70
2022/07/18 03:14:45;;;;;;;2.08;1.98;;;14.40;94.90;;;;;;6155048;23;20149;-71
2022/07/18 03:17:11;;;;;;;2.28;2.00;;;14.20;95.90;;;;;;6154809;23;20149;-72
2022/07/18 03:19:37;;;;;;;2.78;1.67;;;14.10;96.00;;;;;;6154220;23;20180;-72
2022/07/18 03:22:03;;;;;;;2.30;2.08;;;14.10;96.40;;;;;;6154598;23;20623;-73
2022/07/18 03:24:29;;;;;;;1.80;1.70;;;14.10;96.40;;;;;;6155200;23;20157;-73
2022/07/18 03:26:56;;;;;;;2.20;1.60;;;14.00;96.50;;;;;;6155161;23;20188;-71
2022/07/18 03:29:22;;;;;;;1.85;1.75;;;14.00;96.70;;;;;;6155296;23;20153;-70
2022/07/18 03:31:47;;;;;;;1.83;1.60;;;14.10;96.20;;;;;;6154863;23;20185;-69
2022/07/18 03:34:13;;;;;;;1.88;1.58;;;14.10;96.10;;;;;;6154914;23;20146;-69
2022/07/18 03:36:39;;;;;;;1.90;1.48;;;14.10;96.00;;;;;;6154580;23;20163;-69
2022/07/18 03:39:06;;;;;;;3.15;1.50;;;14.10;96.00;;;;;;6156529;23;20146;-69
2022/07/18 03:41:32;;;;;;;1.48;1.38;;;14.10;95.80;;;;;;6156626;23;20173;-71
2022/07/18 03:43:58;;;;;;;1.88;1.73;;;14.10;95.90;;;;;;6156844;23;20239;-69
2022/07/18 03:46:24;;;;;;;3.38;1.52;;;14.10;95.90;;;;;;6156543;23;20161;-69
2022/07/18 03:48:49;;;;;;;2.42;1.77;;;14.20;96.20;;;;;;6156766;23;20161;-72
2022/07/18 03:51:15;;;;;;;2.17;1.75;;;14.20;96.50;;;;;;6156667;23;20196;-71
2022/07/18 03:53:41;;;;;;;1.80;1.70;;;14.20;96.90;;;;;;6157010;23;20185;-71
2022/07/18 03:56:07;;;;;;;3.40;1.85;;;14.20;97.20;;;;;;6156282;23;20196;-71
2022/07/18 03:58:32;;;;;;;1.77;1.67;;;14.10;97.70;;;;;;6156555;23;20165;-71
2022/07/18 04:00:58;;;;;;;1.70;1.60;;;14.00;98.00;;;;;;6128222;23;20180;-71
2022/07/18 04:03:24;;;;;;;2.10;1.90;;;14.00;99.30;;;;;;6156412;23;20149;-71
2022/07/18 04:05:49;;;;;;;2.20;2.00;;;14.00;99.20;;;;;;6156204;23;20173;-71
2022/07/18 04:08:16;;;;;;;1.90;1.80;;;14.10;98.80;;;;;;6156478;23;20247;-71
2022/07/18 04:10:43;;;;;;;2.10;1.95;;;14.10;98.50;;;;;;6156083;23;20145;-71
2022/07/18 04:13:08;;;;;;;2.88;2.22;;;14.20;98.00;;;;;;6156221;23;20177;-71
2022/07/18 04:15:35;;;;;;;1.92;1.80;;;14.30;97.70;;;;;;6156288;23;20674;-71
2022/07/18 04:18:01;;;;;;;2.60;2.40;;;14.30;98.10;;;;;;6156505;23;20216;-72
2022/07/18 04:20:26;;;;;;;2.22;2.05;;;14.20;98.60;;;;;;6155721;23;20157;-72
2022/07/18 04:22:57;;;;;;;2.17;1.98;;;14.30;99.00;;;;;;6155769;23;20169;-72
2022/07/18 04:25:27;;;;;;;2.78;2.47;;;14.30;99.30;;;;;;6155922;23;20158;-71
2022/07/18 04:27:54;;;;;;;3.92;2.30;;;14.30;98.70;;;;;;6155992;23;20149;-73
2022/07/18 04:30:22;;;;;;;2.38;1.83;;;14.30;98.80;;;;;;6155522;23;20154;-73
2022/07/18 04:32:48;;;;;;;4.82;2.33;;;14.40;98.70;;;;;;6155250;23;20653;-71
2022/07/18 04:35:14;;;;;;;4.43;1.75;;;14.50;99.20;;;;;;6156168;23;20154;-72
2022/07/18 04:37:40;;;;;;;2.67;1.67;;;14.50;98.80;;;;;;6156450;23;20611;-73
2022/07/18 04:40:08;;;;;;;2.92;2.08;;;14.60;98.00;;;;;;6155914;23;20129;-72
2022/07/18 04:42:34;;;;;;;3.80;2.10;;;14.60;98.00;;;;;;6155824;23;20177;-72
2022/07/18 04:45:00;;;;;;;2.25;2.10;;;14.70;97.80;;;;;;6155258;23;20153;-72
2022/07/18 04:47:27;;;;;;;2.97;1.83;;;14.80;97.20;;;;;;6156903;23;20197;-73
2022/07/18 04:49:52;;;;;;;2.97;1.95;;;14.80;96.20;;;;;;6155934;23;20153;-73
2022/07/18 04:52:18;;;;;;;2.75;1.80;;;14.90;95.50;;;;;;6156861;23;20635;-73
2022/07/18 04:54:44;;;;;;;4.20;2.25;;;15.00;94.20;;;;;;6152518;23;20154;-72
2022/07/18 04:57:14;;;;;;;4.97;1.90;;;15.10;93.60;;;;;;6156808;23;20146;-72
2022/07/18 04:59:41;;;;;;;1.85;1.67;;;15.10;93.50;;;;;;6156384;23;20236;-72
2022/07/18 05:02:08;;;;;;;2.72;1.77;;;15.20;93.00;;;;;;6156085;23;20184;-72
2022/07/18 05:04:34;;;;;;;3.55;1.73;;;15.30;92.40;;;;;;6155536;23;20176;-74
2022/07/18 05:07:00;;;;;;;4.47;1.98;;;15.40;92.20;;;;;;6154325;23;20232;-73
2022/07/18 05:09:26;;;;;;;3.22;1.92;;;15.50;91.60;;;;;;6154896;23;20227;-74
2022/07/18 05:11:52;;;;;;;7.55;1.95;;;15.50;91.60;;;;;;6154973;23;20181;-73
2022/07/18 05:14:18;;;;;;;2.20;1.85;;;15.60;91.50;;;;;;6155203;23;20232;-73
2022/07/18 05:16:43;;;;;;;4.25;2.00;;;15.70;91.50;;;;;;6155980;23;20188;-74
2022/07/18 05:19:09;;;;;;;2.35;2.10;;;15.80;91.40;;;;;;6154163;23;20204;-74
2022/07/18 05:21:35;;;;;;;4.22;1.70;;;15.90;90.80;;;;;;6153936;23;20560;-74
2022/07/18 05:24:00;;;;;;;7.45;1.90;;;16.00;90.80;;;;;;6154383;23;20160;-73
2022/07/18 05:26:26;;;;;;;3.40;1.88;;;16.10;90.40;;;;;;6127280;23;20168;-73
2022/07/18 05:28:52;;;;;;;2.38;2.00;;;16.10;89.90;;;;;;6154462;23;20156;-73
2022/07/18 05:31:17;;;;;;;5.07;2.05;;;16.20;90.70;;;;;;6154461;23;20184;-73
2022/07/18 05:33:43;;;;;;;5.35;1.92;;;16.30;93.50;;;;;;6154440;23;20591;-73
2022/07/18 05:36:09;;;;;;;3.10;1.60;;;16.50;91.40;;;;;;6155399;23;20204;-72
2022/07/18 05:38:34;;;;;;;4.03;2.15;;;16.60;91.10;;;;;;6153949;23;20150;-72
2022/07/18 05:41:00;;;;;;;6.47;2.15;;;16.70;90.30;;;;;;6154916;23;20176;-72
2022/07/18 05:43:26;;;;;;;2.25;1.70;;;16.80;90.10;;;;;;6154151;23;20537;-72
2022/07/18 05:45:51;;;;;;;4.80;1.98;;;16.90;88.70;;;;;;6154628;23;20224;-72
2022/07/18 05:48:17;;;;;;;3.47;1.83;;;17.00;88.00;;;;;;6154467;23;20408;-72
2022/07/18 05:50:44;;;;;;;2.53;2.08;;;17.00;87.30;;;;;;6126825;23;20153;-73
2022/07/18 05:53:09;;;;;;;2.95;1.98;;;17.20;87.50;;;;;;6154077;23;20557;-73
2022/07/18 05:55:35;;;;;;;2.85;2.25;;;17.30;86.50;;;;;;6154313;23;20212;-74
2022/07/18 05:58:01;;;;;;;3.80;1.77;;;17.40;86.70;;;;;;6153783;23;20172;-72
2022/07/18 06:00:26;;;;;;;2.22;2.00;;;17.40;88.20;;;;;;6154435;23;20177;-72
2022/07/18 06:02:52;;;;;;;3.67;2.00;;;17.50;86.40;;;;;;6154714;23;20157;-73
2022/07/18 06:05:18;;;;;;;4.82;2.10;;;17.70;86.50;;;;;;6153851;23;20500;-72
2022/07/18 06:07:44;;;;;;;3.38;2.30;;;17.80;85.80;;;;;;6153267;23;20166;-72
2022/07/18 06:10:09;;;;;;;3.58;2.20;;;17.90;85.50;;;;;;6154039;23;20500;-72
2022/07/18 06:12:35;;;;;;;3.33;1.88;;;18.00;86.30;;;;;;6155764;23;20185;-75
2022/07/18 06:15:01;;;;;;;6.25;2.20;;;18.10;86.00;;;;;;6154263;23;20156;-73
2022/07/18 06:17:30;;;;;;;6.78;2.10;;;18.30;85.80;;;;;;6155126;23;20173;-73
2022/07/18 06:19:56;;;;;;;5.57;2.50;;;18.40;85.50;;;;;;6128873;23;20181;-73
2022/07/18 06:22:23;;;;;;;6.07;2.25;;;18.50;84.50;;;;;;6155188;23;20232;-73
2022/07/18 06:24:48;;;;;;;7.03;1.98;;;18.70;84.90;;;;;;6155397;23;20212;-73
2022/07/18 06:27:14;;;;;;;11.57;2.28;;;18.80;83.50;;;;;;6154787;23;20161;-71
2022/07/18 06:29:40;;;;;;;5.35;2.15;;;18.90;83.10;;;;;;6127884;23;20162;-72
2022/07/18 06:32:06;;;;;;;6.72;2.10;;;19.00;84.20;;;;;;6154469;23;20181;-72
2022/07/18 06:34:32;;;;;;;4.38;2.13;;;19.20;83.00;;;;;;6154662;23;20145;-73
2022/07/18 06:36:57;;;;;;;3.80;1.95;;;19.30;82.70;;;;;;6154646;23;20160;-72
2022/07/18 06:39:23;;;;;;;6.55;2.22;;;19.50;82.80;;;;;;6153821;23;20146;-72
2022/07/18 06:41:49;;;;;;;10.10;3.08;;;19.60;82.60;;;;;;6154096;23;20181;-72
2022/07/18 06:44:15;;;;;;;6.35;2.75;;;19.70;81.20;;;;;;6153342;23;20564;-71
2022/07/18 06:46:41;;;;;;;4.40;2.08;;;19.90;81.00;;;;;;6127920;23;20240;-71
2022/07/18 06:49:07;;;;;;;5.97;1.90;;;20.00;79.20;;;;;;6127567;23;20192;-71
2022/07/18 06:51:33;;;;;;;2.90;2.20;;;20.10;79.60;;;;;;6153895;23;21052;-70
2022/07/18 06:53:59;;;;;;;7.75;1.88;;;20.30;80.00;;;;;;6154463;23;20362;-73
2022/07/18 06:56:25;;;;;;;2.97;2.08;;;20.40;78.70;;;;;;6153439;23;20169;-73
2022/07/18 06:58:51;;;;;;;5.38;2.03;;;20.60;77.70;;;;;;6126714;23;20229;-72
2022/07/18 07:01:18;;;;;;;2.10;1.70;;;20.70;76.30;;;;;;6153790;23;20173;-74
2022/07/18 07:03:45;;;;;;;2.53;1.77;;;20.80;76.70;;;;;;6126209;23;20158;-71
2022/07/18 07:06:11;;;;;;;2.42;1.90;;;20.90;75.40;;;;;;6125574;23;20246;-72
2022/07/18 07:08:36;;;;;;;3.33;1.92;;;21.10;75.50;;;;;;6153346;23;20177;-72
2022/07/18 07:11:02;;;;;;;2.00;1.73;;;21.20;74.10;;;;;;6153654;23;20484;-72
2022/07/18 07:13:28;;;;;;;1.80;1.70;;;21.30;73.30;;;;;;6153259;23;20185;-73
2022/07/18 07:15:53;;;;;;;3.78;1.88;;;21.50;73.50;;;;;;6151985;23;20153;-72
2022/07/18 07:18:20;;;;;;;1.85;1.75;;;21.70;73.40;;;;;;6152971;23;20184;-72
2022/07/18 07:20:46;;;;;;;2.95;1.85;;;21.80;73.20;;;;;;6153515;23;20156;-72
2022/07/18 07:23:13;;;;;;;1.83;1.73;;;21.90;72.80;;;;;;6153650;23;20156;-73
2022/07/18 07:25:39;;;;;;;3.97;2.00;;;21.90;72.50;;;;;;6153667;23;20168;-73
2022/07/18 07:28:06;;;;;;;2.15;1.63;;;22.00;72.40;;;;;;6153958;23;20179;-72
2022/07/18 07:30:33;;;;;;;2.72;2.00;;;22.10;72.70;;;;;;6153749;23;20160;-73
2022/07/18 07:32:59;;;;;;;2.38;1.88;;;22.20;71.50;;;;;;6153272;23;20672;-71
2022/07/18 07:35:25;;;;;;;2.92;1.92;;;22.20;72.80;;;;;;6153935;23;20156;-72
2022/07/18 07:37:56;;;;;;;1.70;1.60;;;22.20;71.50;;;;;;6152932;23;20145;-72
2022/07/18 07:40:24;;;;;;;2.15;1.50;;;22.30;72.40;;;;;;6150655;23;20144;-71
2022/07/18 07:42:50;;;;;;;2.83;1.80;;;22.30;72.30;;;;;;6152146;23;20180;-70
2022/07/18 07:45:17;;;;;;;1.50;1.40;;;22.40;71.90;;;;;;6152040;23;20158;-71
2022/07/18 07:47:43;;;;;;;2.35;1.85;;;22.60;72.60;;;;;;6152221;23;20142;-73
2022/07/18 07:50:10;;;;;;;2.33;1.70;;;22.70;71.70;;;;;;6151150;23;20157;-72
2022/07/18 07:52:36;;;;;;;3.08;2.17;;;22.80;71.60;;;;;;6151565;23;20177;-73
2022/07/18 07:55:03;;;;;;;3.78;1.58;;;22.90;70.80;;;;;;6153588;23;20452;-74
2022/07/18 07:57:29;;;;;;;2.50;1.70;;;23.10;71.60;;;;;;6156479;23;20157;-73
2022/07/18 07:59:55;;;;;;;2.45;1.45;;;23.20;70.50;;;;;;6152744;23;20692;-72
2022/07/18 08:02:20;;;;;;;4.45;1.90;;;23.40;69.90;;;;;;6153149;23;20216;-72
2022/07/18 08:04:46;;;;;;;2.75;1.77;;;23.60;70.30;;;;;;6152745;23;20150;-72
2022/07/18 08:07:11;;;;;;;2.08;1.38;;;23.60;69.70;;;;;;6154267;23;20591;-71
2022/07/18 08:09:38;;;;;;;2.60;1.50;;;23.60;69.80;;;;;;6155937;23;20154;-71
2022/07/18 08:12:04;;;;;;;2.53;1.90;;;23.70;70.80;;;;;;6153887;23;20177;-73
2022/07/18 08:14:32;;;;;;;2.00;1.90;;;23.80;69.40;;;;;;6152502;23;20595;-71
2022/07/18 08:16:58;;;;;;;3.03;1.80;;;23.90;68.20;;;;;;6153426;23;20145;-70
2022/07/18 08:19:23;;;;;;;2.60;1.60;;;24.00;67.40;;;;;;6151851;23;20224;-71
2022/07/18 08:21:49;;;;;;;1.92;1.83;;;24.10;66.50;;;;;;6154184;23;20182;-72
2022/07/18 08:24:15;;;;;;;1.70;1.60;;;24.20;65.90;;;;;;6153755;23;20486;-72
2022/07/18 08:26:40;;;;;;;3.90;1.70;;;24.20;66.40;;;;;;6155828;23;20153;-72
2022/07/18 08:29:07;;;;;;;1.85;1.75;;;24.40;66.00;;;;;;6155851;23;20160;-70
2022/07/18 08:31:33;;;;;;;1.80;1.50;;;24.50;66.20;;;;;;6154626;23;20188;-71
2022/07/18 08:33:58;;;;;;;1.83;1.60;;;24.60;67.10;;;;;;6155052;23;20146;-71
2022/07/18 08:36:24;;;;;;;2.58;1.70;;;24.70;66.40;;;;;;6155425;23;20204;-70
2022/07/18 08:38:50;;;;;;;3.08;2.00;;;24.80;65.10;;;;;;6154845;23;20154;-69
2022/07/18 08:41:22;;;;;;;1.98;1.88;;;24.90;64.30;;;;;;6154853;23;20622;-70
2022/07/18 08:43:49;;;;;;;3.75;1.60;;;25.00;62.90;;;;;;6154254;23;20571;-71
2022/07/18 08:46:18;;;;;;;2.80;2.05;;;25.10;63.60;;;;;;6128163;23;20180;-72
2022/07/18 08:48:44;;;;;;;1.75;1.65;;;25.10;63.30;;;;;;6154731;23;20153;-72
2022/07/18 08:51:10;;;;;;;6.93;2.05;;;25.20;63.00;;;;;;6154695;23;20169;-72
2022/07/18 08:53:37;;;;;;;3.00;1.80;;;25.40;60.90;;;;;;6155239;23;20177;-72
2022/07/18 08:56:03;;;;;;;3.25;1.88;;;25.50;63.20;;;;;;6155972;23;20150;-71
2022/07/18 08:58:29;;;;;;;1.98;1.88;;;25.60;61.50;;;;;;6128528;23;20224;-72
2022/07/18 09:00:57;;;;;;;2.33;2.00;;;25.70;61.90;;;;;;6154184;23;20474;-75
2022/07/18 09:03:24;;;;;;;2.08;1.83;;;25.90;61.20;;;;;;6155309;23;20156;-73
2022/07/18 09:06:04;;;;;;;2.45;1.60;;;26.00;59.10;;;;;;6155720;23;20552;-73
2022/07/18 09:08:30;;;;;;;2.05;1.70;;;26.00;59.60;;;;;;6153672;23;20181;-72
2022/07/18 09:10:57;;;;;;;2.38;1.70;;;26.00;61.10;;;;;;6152765;23;20177;-71
2022/07/18 09:13:34;;;;;;;2.33;1.70;;;26.10;61.00;;;;;;6154009;23;20235;-71
2022/07/18 09:16:04;;;;;;;1.73;1.40;;;26.20;60.70;;;;;;6153522;23;20218;-67
2022/07/18 09:18:42;;;;;;;2.85;1.80;;;26.30;58.90;;;;;;6153135;23;20181;-72
2022/07/18 09:21:10;;;;;;;2.35;1.70;;;26.50;59.10;;;;;;6154634;23;20464;-70
2022/07/18 09:23:39;;;;;;;1.55;1.45;;;26.60;60.30;;;;;;6158916;23;20184;-69
2022/07/18 09:26:05;;;;;;;1.83;1.60;;;26.80;58.20;;;;;;6151355;23;20539;-73
2022/07/18 09:28:50;;;;;;;2.38;1.70;;;27.10;59.40;;;;;;6125482;23;20158;-71
2022/07/18 09:31:20;;;;;;;1.90;1.80;;;27.30;57.40;;;;;;6150229;23;20228;-71
2022/07/18 09:33:59;;;;;;;1.85;1.50;;;27.50;56.10;;;;;;6151430;23;20252;-71
2022/07/18 09:36:26;;;;;;;2.40;1.80;;;27.80;56.40;;;;;;6152255;23;20134;-72
2022/07/18 09:38:52;;;;;;;1.90;1.55;;;28.20;54.90;;;;;;6153513;23;20203;-74
2022/07/18 09:41:26;;;;;;;2.80;1.73;;;29.50;52.40;;;;;;6155042;23;20177;-74
2022/07/18 09:43:52;;;;;;;4.43;1.52;;;31.50;51.10;;;;;;6154901;23;20142;-74
2022/07/18 09:46:17;;;;;;;1.42;1.33;;;34.00;45.00;;;;;;6154137;23;20184;-73
2022/07/18 09:48:43;;;;;;;2.70;1.70;;;36.00;44.10;;;;;;6128466;23;20153;-73
2022/07/18 09:51:09;;;;;;;2.60;2.03;;;37.10;41.60;;;;;;6154860;23;20169;-74
2022/07/18 09:53:42;;;;;;;2.47;1.50;;;38.30;40.30;;;;;;6153226;23;20180;-71
2022/07/18 09:56:10;;;;;;;2.38;1.75;;;39.70;38.00;;;;;;6152673;23;20513;-72
2022/07/18 09:58:50;;;;;;;2.20;1.60;;;40.90;36.10;;;;;;6152885;23;20169;-71
2022/07/18 10:01:16;;;;;;;2.17;1.40;;;40.90;35.30;;;;;;6153747;23;20168;-72
2022/07/18 10:03:42;;;;;;;1.52;1.30;;;41.40;34.80;;;;;;6151248;23;20145;-72
2022/07/18 10:06:08;;;;;;;2.25;1.63;;;41.00;35.60;;;;;;6152649;23;20144;-72
2022/07/18 10:08:35;;;;;;;1.52;1.42;;;41.30;33.60;;;;;;6153869;23;20153;-72
2022/07/18 10:11:04;;;;;;;3.40;1.40;;;41.10;33.40;;;;;;6154203;23;20271;-72
2022/07/18 10:13:31;;;;;;;3.50;1.40;;;41.60;33.80;;;;;;6153751;23;20172;-72
2022/07/18 10:15:58;;;;;;;1.45;1.27;;;42.70;32.30;;;;;;6152988;23;20156;-72
2022/07/18 10:18:29;;;;;;;2.70;1.30;;;42.90;31.90;;;;;;6127931;23;20489;-72
2022/07/18 10:20:58;;;;;;;2.28;1.40;;;43.20;31.30;;;;;;6153853;23;20251;-72
2022/07/18 10:23:53;;;;;;;1.50;1.40;;;42.90;31.30;;;;;;6154333;23;20153;-72
2022/07/18 10:26:24;;;;;;;2.60;1.63;;;42.80;31.90;;;;;;6135363;23;20161;-70
2022/07/18 10:29:09;;;;;;;0.95;0.90;;;43.30;30.50;;;;;;6153329;23;20566;-72
2022/07/18 10:31:42;;;;;;;1.50;1.40;;;44.00;29.90;;;;;;6154261;23;20180;-71
2022/07/18 10:34:07;;;;;;;3.13;1.30;;;44.20;30.00;;;;;;6154345;23;20223;-74
2022/07/18 10:36:54;;;;;;;3.45;1.33;;;45.10;29.00;;;;;;6153478;23;20394;-73
2022/07/18 10:39:22;;;;;;;2.28;1.40;;;44.60;29.50;;;;;;6137102;23;20161;-74
2022/07/18 10:41:48;;;;;;;2.90;1.60;;;43.80;29.90;;;;;;6152712;23;20172;-74
2022/07/18 10:44:29;;;;;;;1.35;1.35;;;43.90;29.70;;;;;;6153094;23;20157;-74
2022/07/18 10:47:12;;;;;;;1.25;1.25;;;43.90;29.70;;;;;;6152733;23;20147;-73
2022/07/18 10:49:47;;;;;;;1.63;1.27;;;43.90;29.70;;;;;;6151556;23;20137;-73
2022/07/18 10:52:27;;;;;;;1.52;1.42;;;43.90;29.80;;;;;;6152706;23;20212;-74
2022/07/18 10:55:08;;;;;;;3.10;1.40;;;44.20;29.60;;;;;;6126231;23;20231;-75
2022/07/18 10:57:57;;;;;;;1.23;1.13;;;44.90;28.30;;;;;;6153683;23;20207;-75
2022/07/18 11:00:22;;;;;;;2.28;1.40;;;45.00;28.60;;;;;;6139772;23;20157;-74
2022/07/18 11:03:04;;;;;;;2.05;1.27;;;45.60;28.90;;;;;;6153511;23;20656;-75
2022/07/18 11:05:29;;;;;;;1.95;1.40;;;45.00;28.70;;;;;;6153306;23;20232;-75
2022/07/18 11:08:01;;;;;;;1.50;0.98;;;45.30;28.40;;;;;;6153364;23;20180;-74
2022/07/18 11:10:49;;;;;;;3.95;1.20;;;44.90;28.60;;;;;;6153550;23;20152;-71
2022/07/18 11:13:30;;;;;;;1.10;1.10;;;45.00;28.00;;;;;;6153025;23;20240;-75
2022/07/18 11:16:09;;;;;;;1.48;1.33;;;45.40;27.50;;;;;;6151973;23;20145;-74
2022/07/18 11:18:43;;;;;;;2.60;1.23;;;45.30;27.20;;;;;;6151537;23;20473;-72
2022/07/18 11:21:29;;;;;;;3.50;1.50;;;45.30;27.50;;;;;;6152080;23;20168;-72
2022/07/18 11:24:11;;;;;;;1.52;1.10;;;44.50;28.40;;;;;;6151337;23;20595;-71
2022/07/18 11:26:46;;;;;;;1.95;1.30;;;44.50;28.90;;;;;;6152653;23;20481;-71
2022/07/18 11:29:16;;;;;;;1.20;1.20;;;45.10;28.70;;;;;;6149336;23;20158;-71
2022/07/18 11:31:53;;;;;;;1.70;1.10;;;45.40;28.40;;;;;;6152720;23;20192;-71
2022/07/18 11:34:19;;;;;;;1.30;1.20;;;45.90;27.60;;;;;;6152864;23;20235;-71
2022/07/18 11:36:46;;;;;;;1.90;1.40;;;45.90;28.30;;;;;;6152028;23;20149;-70
2022/07/18 11:39:13;;;;;;;1.30;1.23;;;46.30;27.50;;;;;;6151139;23;20149;-70
2022/07/18 11:41:40;;;;;;;0.93;0.90;;;46.10;28.00;;;;;;6151074;23;20227;-70
2022/07/18 11:44:21;;;;;;;1.20;1.20;;;45.00;28.00;;;;;;6151980;23;20606;-71
2022/07/18 11:46:47;;;;;;;1.45;1.45;;;43.90;28.40;;;;;;6152634;23;20236;-74
2022/07/18 11:49:12;;;;;;;3.30;1.20;;;43.60;28.80;;;;;;6152210;23;20180;-72
2022/07/18 11:51:41;;;;;;;3.25;1.20;;;43.00;29.60;;;;;;6152364;23;20223;-74
2022/07/18 11:54:08;;;;;;;1.33;1.23;;;42.60;29.30;;;;;;6152726;23;20176;-74
2022/07/18 11:56:46;;;;;;;1.15;1.13;;;43.10;29.90;;;;;;6152787;23;20163;-74
2022/07/18 11:59:11;;;;;;;1.17;0.95;;;43.40;29.40;;;;;;6153279;23;20196;-74
2022/07/18 12:01:37;;;;;;;2.42;1.15;;;43.60;29.10;;;;;;6153582;23;20169;-73
2022/07/18 12:04:03;;;;;;;1.90;1.55;;;43.60;29.10;;;;;;6153895;23;20586;-72
2022/07/18 12:06:28;;;;;;;1.20;1.10;;;43.40;29.40;;;;;;6153796;23;20191;-74
2022/07/18 12:08:59;;;;;;;1.98;1.25;;;43.00;29.70;;;;;;6154591;23;20152;-72
2022/07/18 12:11:26;;;;;;;1.08;0.95;;;43.20;29.40;;;;;;6128325;23;20263;-72
2022/07/18 12:14:12;;;;;;;2.88;1.23;;;42.80;29.40;;;;;;6155252;23;20149;-73
2022/07/18 12:16:46;;;;;;;1.85;0.93;;;43.10;29.00;;;;;;6154128;23;20157;-73
2022/07/18 12:19:24;;;;;;;3.13;1.38;;;42.70;29.20;;;;;;6154145;23;20203;-74
2022/07/18 12:21:51;;;;;;;1.20;1.20;;;42.90;29.50;;;;;;6154890;23;20279;-72
2022/07/18 12:24:33;;;;;;;3.25;1.10;;;43.40;28.50;;;;;;6154354;23;20207;-73
2022/07/18 12:27:18;;;;;;;1.25;1.15;;;43.10;29.10;;;;;;6153905;23;20195;-74
2022/07/18 12:30:03;;;;;;;3.30;1.25;;;42.90;28.30;;;;;;6154072;23;20144;-74
2022/07/18 12:32:35;;;;;;;1.60;1.40;;;43.20;29.00;;;;;;6154229;23;20238;-74
2022/07/18 12:35:03;;;;;;;4.63;1.42;;;42.70;29.10;;;;;;6154518;23;20192;-75
2022/07/18 12:37:30;;;;;;;1.55;1.40;;;43.20;29.20;;;;;;6153407;23;20161;-74
2022/07/18 12:39:57;;;;;;;1.00;0.98;;;43.00;29.10;;;;;;6153887;23;20220;-74
2022/07/18 12:42:42;;;;;;;1.80;1.10;;;43.50;28.80;;;;;;6153500;23;20176;-74
2022/07/18 12:45:09;;;;;;;3.22;1.50;;;43.80;28.50;;;;;;6154293;23;20137;-73
2022/07/18 12:47:35;;;;;;;2.05;1.60;;;44.40;28.00;;;;;;6154280;23;20228;-76
2022/07/18 12:50:01;;;;;;;1.40;1.30;;;45.50;27.90;;;;;;6153710;23;20546;-76
2022/07/18 12:52:27;;;;;;;3.20;1.30;;;47.10;27.50;;;;;;6154224;23;20204;-78
2022/07/18 12:54:53;;;;;;;6.20;1.48;;;48.10;26.80;;;;;;6154112;23;20152;-76